^^
Saratoga-Weather Station Historical Data
Daily Summary for January 6, 2021 Units:  Both    English   Metric
Daily Weekly Monthly Yearly Custom
  High: Low: Average:
Temperature: 65.1 °F /  18.4 °C 58.1 °F /  14.5 °C 61.3 °F /  16.3 °C
Dew Point: 58.1 °F /  14.5 °C 54.5 °F /  12.5 °C 56.3 °F /  13.5 °C
Humidity: 90% 76% 84%
Wind Speed: 8.1mph /  13km/h - 2.3mph /  3.7km/h
Wind Gust: 9mph /  14.5km/h - -
Wind- - WSW
Pressure: 30.2 in /  1022.4 hPa 30.2 in /  1021.0 hPa -
Precipitation: 0 in /  0.0 mm    
Historical Graphs
 
 
Tabular Data for January 6, 2021
Time Temperature Dew Point Pressure Wind Wind Speed Wind Gust Humidity Rainfall Rate (Hourly) solar
00:03 58.8 °F /  14.9 °C 55.9 °F /  13.3 °C 30.2in /  1022.0hPa West 2.9mph /  4.7km/h 6mph /  9.7km/h 90% 0in /  0.0mm 0 W/m2
00:08 58.8 °F /  14.9 °C 55.9 °F /  13.3 °C 30.2in /  1022.0hPa WNW 2.9mph /  4.7km/h 8mph /  12.9km/h 90% 0in /  0.0mm 0 W/m2
00:13 58.8 °F /  14.9 °C 55.9 °F /  13.3 °C 30.2in /  1022.0hPa West 2.9mph /  4.7km/h 6mph /  9.7km/h 90% 0in /  0.0mm 0 W/m2
00:18 58.8 °F /  14.9 °C 55.9 °F /  13.3 °C 30.2in /  1022.0hPa West 6mph /  9.7km/h 7mph /  11.3km/h 90% 0in /  0.0mm 0 W/m2
00:23 58.8 °F /  14.9 °C 55.9 °F /  13.3 °C 30.2in /  1022.0hPa WNW 2mph /  3.2km/h 8mph /  12.9km/h 90% 0in /  0.0mm 0 W/m2
00:28 58.8 °F /  14.9 °C 55.9 °F /  13.3 °C 30.2in /  1022.4hPa WSW 2.9mph /  4.7km/h 6mph /  9.7km/h 90% 0in /  0.0mm 0 W/m2
00:33 58.8 °F /  14.9 °C 55.9 °F /  13.3 °C 30.2in /  1022.4hPa SW 2mph /  3.2km/h 8mph /  12.9km/h 90% 0in /  0.0mm 0 W/m2
00:38 58.8 °F /  14.9 °C 55.9 °F /  13.3 °C 30.2in /  1022.4hPa WNW 0.9mph /  1.4km/h 4mph /  6.4km/h 90% 0in /  0.0mm 0 W/m2
00:43 58.8 °F /  14.9 °C 55.9 °F /  13.3 °C 30.2in /  1022.4hPa WNW 2mph /  3.2km/h 3mph /  4.8km/h 90% 0in /  0.0mm 0 W/m2
00:48 58.6 °F /  14.8 °C 55.8 °F /  13.2 °C 30.2in /  1022.4hPa West 2.9mph /  4.7km/h 4mph /  6.4km/h 90% 0in /  0.0mm 0 W/m2
00:53 58.6 °F /  14.8 °C 55.8 °F /  13.2 °C 30.2in /  1022.4hPa West 2.9mph /  4.7km/h 6mph /  9.7km/h 90% 0in /  0.0mm 0 W/m2
00:58 58.6 °F /  14.8 °C 55.8 °F /  13.2 °C 30.2in /  1022.4hPa WNW 2mph /  3.2km/h 4mph /  6.4km/h 90% 0in /  0.0mm 0 W/m2
01:03 58.6 °F /  14.8 °C 55.8 °F /  13.2 °C 30.2in /  1022.4hPa West 2.9mph /  4.7km/h 6mph /  9.7km/h 90% 0in /  0.0mm 0 W/m2
01:08 58.6 °F /  14.8 °C 55.8 °F /  13.2 °C 30.2in /  1022.4hPa WSW 4mph /  6.4km/h 5mph /  8km/h 90% 0in /  0.0mm 0 W/m2
01:13 58.6 °F /  14.8 °C 55.8 °F /  13.2 °C 30.2in /  1022.4hPa WSW 2mph /  3.2km/h 4mph /  6.4km/h 90% 0in /  0.0mm 0 W/m2
01:18 58.6 °F /  14.8 °C 55.8 °F /  13.2 °C 30.2in /  1022.0hPa NW 2.9mph /  4.7km/h 4mph /  6.4km/h 90% 0in /  0.0mm 0 W/m2
01:23 58.6 °F /  14.8 °C 55.8 °F /  13.2 °C 30.2in /  1022.0hPa WNW 2mph /  3.2km/h 4mph /  6.4km/h 90% 0in /  0.0mm 0 W/m2
01:28 58.6 °F /  14.8 °C 55.8 °F /  13.2 °C 30.2in /  1022.4hPa WSW 2.9mph /  4.7km/h 6mph /  9.7km/h 90% 0in /  0.0mm 0 W/m2
01:33 58.6 °F /  14.8 °C 55.8 °F /  13.2 °C 30.2in /  1022.4hPa WSW 2mph /  3.2km/h 6mph /  9.7km/h 90% 0in /  0.0mm 0 W/m2
01:38 58.6 °F /  14.8 °C 55.8 °F /  13.2 °C 30.2in /  1022.0hPa West 2mph /  3.2km/h 5mph /  8km/h 90% 0in /  0.0mm 0 W/m2
01:43 58.6 °F /  14.8 °C 55.8 °F /  13.2 °C 30.2in /  1022.4hPa WSW 2.9mph /  4.7km/h 7mph /  11.3km/h 90% 0in /  0.0mm 0 W/m2
01:48 58.6 °F /  14.8 °C 55.8 °F /  13.2 °C 30.2in /  1022.4hPa WNW 0.9mph /  1.4km/h 5mph /  8km/h 90% 0in /  0.0mm 0 W/m2
01:53 58.5 °F /  14.7 °C 55.6 °F /  13.1 °C 30.2in /  1022.0hPa West 4mph /  6.4km/h 7mph /  11.3km/h 90% 0in /  0.0mm 0 W/m2
01:58 58.5 °F /  14.7 °C 55.6 °F /  13.1 °C 30.2in /  1022.0hPa West 2mph /  3.2km/h 3mph /  4.8km/h 90% 0in /  0.0mm 0 W/m2
02:03 58.5 °F /  14.7 °C 55.6 °F /  13.1 °C 30.2in /  1022.0hPa WSW 4mph /  6.4km/h 6mph /  9.7km/h 90% 0in /  0.0mm 0 W/m2
02:08 58.5 °F /  14.7 °C 55.6 °F /  13.1 °C 30.2in /  1022.0hPa West 6mph /  9.7km/h 6mph /  9.7km/h 90% 0in /  0.0mm 0 W/m2
02:13 58.5 °F /  14.7 °C 55.6 °F /  13.1 °C 30.2in /  1022.0hPa WSW 2.9mph /  4.7km/h 8mph /  12.9km/h 90% 0in /  0.0mm 0 W/m2
02:18 58.5 °F /  14.7 °C 55.6 °F /  13.1 °C 30.2in /  1022.0hPa WNW 4mph /  6.4km/h 5mph /  8km/h 90% 0in /  0.0mm 0 W/m2
02:23 58.5 °F /  14.7 °C 55.6 °F /  13.1 °C 30.2in /  1022.0hPa WSW 4mph /  6.4km/h 8mph /  12.9km/h 90% 0in /  0.0mm 0 W/m2
02:28 58.5 °F /  14.7 °C 55.6 °F /  13.1 °C 30.2in /  1022.0hPa NW 2mph /  3.2km/h 4mph /  6.4km/h 90% 0in /  0.0mm 0 W/m2
02:33 58.6 °F /  14.8 °C 55.8 °F /  13.2 °C 30.2in /  1022.0hPa WSW 2.9mph /  4.7km/h 5mph /  8km/h 90% 0in /  0.0mm 0 W/m2
02:38 58.5 °F /  14.7 °C 55.6 °F /  13.1 °C 30.2in /  1022.0hPa West 4mph /  6.4km/h 4mph /  6.4km/h 90% 0in /  0.0mm 0 W/m2
02:43 58.5 °F /  14.7 °C 55.6 °F /  13.1 °C 30.2in /  1022.0hPa West 2mph /  3.2km/h 4mph /  6.4km/h 90% 0in /  0.0mm 0 W/m2
02:48 58.5 °F /  14.7 °C 55.6 °F /  13.1 °C 30.2in /  1022.0hPa West 2mph /  3.2km/h 4mph /  6.4km/h 90% 0in /  0.0mm 0 W/m2
02:53 58.5 °F /  14.7 °C 55.6 °F /  13.1 °C 30.2in /  1022.0hPa West 2.9mph /  4.7km/h 4mph /  6.4km/h 90% 0in /  0.0mm 0 W/m2
02:58 58.5 °F /  14.7 °C 55.6 °F /  13.1 °C 30.2in /  1022.0hPa WNW 2.9mph /  4.7km/h 4mph /  6.4km/h 90% 0in /  0.0mm 0 W/m2
03:03 58.5 °F /  14.7 °C 55.6 °F /  13.1 °C 30.2in /  1022.0hPa WNW 2mph /  3.2km/h 3mph /  4.8km/h 90% 0in /  0.0mm 0 W/m2
03:08 58.5 °F /  14.7 °C 55.6 °F /  13.1 °C 30.2in /  1022.0hPa West 2mph /  3.2km/h 4mph /  6.4km/h 90% 0in /  0.0mm 0 W/m2
03:13 58.5 °F /  14.7 °C 55.6 °F /  13.1 °C 30.2in /  1022.0hPa West 2mph /  3.2km/h 3mph /  4.8km/h 90% 0in /  0.0mm 0 W/m2
03:18 58.5 °F /  14.7 °C 55.6 °F /  13.1 °C 30.2in /  1022.0hPa WNW 2mph /  3.2km/h 3mph /  4.8km/h 90% 0in /  0.0mm 0 W/m2
03:23 58.5 °F /  14.7 °C 55.6 °F /  13.1 °C 30.2in /  1022.0hPa West 2mph /  3.2km/h 3mph /  4.8km/h 90% 0in /  0.0mm 0 W/m2
03:28 58.5 °F /  14.7 °C 55.6 °F /  13.1 °C 30.2in /  1021.7hPa West 2mph /  3.2km/h 2mph /  3.2km/h 90% 0in /  0.0mm 0 W/m2
03:33 58.5 °F /  14.7 °C 55.6 °F /  13.1 °C 30.2in /  1021.7hPa WNW 2.9mph /  4.7km/h 3mph /  4.8km/h 90% 0in /  0.0mm 0 W/m2
03:38 58.6 °F /  14.8 °C 55.8 °F /  13.2 °C 30.2in /  1021.7hPa West 2mph /  3.2km/h 4mph /  6.4km/h 90% 0in /  0.0mm 0 W/m2
03:43 58.6 °F /  14.8 °C 55.8 °F /  13.2 °C 30.2in /  1021.7hPa SW 0.9mph /  1.4km/h 4mph /  6.4km/h 90% 0in /  0.0mm 0 W/m2
03:48 58.6 °F /  14.8 °C 55.8 °F /  13.2 °C 30.2in /  1021.7hPa West 0.9mph /  1.4km/h 2mph /  3.2km/h 90% 0in /  0.0mm 0 W/m2
03:53 58.5 °F /  14.7 °C 55.6 °F /  13.1 °C 30.2in /  1021.7hPa WSW 2mph /  3.2km/h 4mph /  6.4km/h 90% 0in /  0.0mm 0 W/m2
03:58 58.5 °F /  14.7 °C 55.6 °F /  13.1 °C 30.2in /  1021.7hPa WSW 0.9mph /  1.4km/h 3mph /  4.8km/h 90% 0in /  0.0mm 0 W/m2
04:03 58.5 °F /  14.7 °C 55.6 °F /  13.1 °C 30.2in /  1021.7hPa WSW 2mph /  3.2km/h 2mph /  3.2km/h 90% 0in /  0.0mm 0 W/m2
04:08 58.5 °F /  14.7 °C 55.6 °F /  13.1 °C 30.2in /  1021.7hPa Calm   3mph /  4.8km/h 90% 0in /  0.0mm 0 W/m2
04:13 58.5 °F /  14.7 °C 55.6 °F /  13.1 °C 30.2in /  1021.7hPa Calm     90% 0in /  0.0mm 0 W/m2
04:18 58.5 °F /  14.7 °C 55.6 °F /  13.1 °C 30.2in /  1021.7hPa WSW 0.9mph /  1.4km/h 3mph /  4.8km/h 90% 0in /  0.0mm 0 W/m2
04:23 58.6 °F /  14.8 °C 55.8 °F /  13.2 °C 30.2in /  1021.7hPa Calm   2mph /  3.2km/h 90% 0in /  0.0mm 0 W/m2
04:28 58.6 °F /  14.8 °C 55.8 °F /  13.2 °C 30.2in /  1021.7hPa Calm   3mph /  4.8km/h 90% 0in /  0.0mm 0 W/m2
04:33 58.5 °F /  14.7 °C 55.6 °F /  13.1 °C 30.2in /  1021.7hPa West 2mph /  3.2km/h 2mph /  3.2km/h 90% 0in /  0.0mm 0 W/m2
04:38 58.5 °F /  14.7 °C 55.6 °F /  13.1 °C 30.2in /  1021.7hPa West 0.9mph /  1.4km/h 2mph /  3.2km/h 90% 0in /  0.0mm 0 W/m2
04:43 58.5 °F /  14.7 °C 55.6 °F /  13.1 °C 30.2in /  1021.7hPa West 2.9mph /  4.7km/h 3mph /  4.8km/h 90% 0in /  0.0mm 0 W/m2
04:48 58.5 °F /  14.7 °C 55.6 °F /  13.1 °C 30.2in /  1021.7hPa West 4mph /  6.4km/h 4mph /  6.4km/h 90% 0in /  0.0mm 0 W/m2
04:53 58.5 °F /  14.7 °C 55.2 °F /  12.9 °C 30.2in /  1021.7hPa West 2.9mph /  4.7km/h 7mph /  11.3km/h 89% 0in /  0.0mm 0 W/m2
04:58 58.5 °F /  14.7 °C 55.2 °F /  12.9 °C 30.2in /  1021.7hPa West 2.9mph /  4.7km/h 6mph /  9.7km/h 89% 0in /  0.0mm 0 W/m2
05:03 58.5 °F /  14.7 °C 55.2 °F /  12.9 °C 30.2in /  1021.7hPa NW 2.9mph /  4.7km/h 7mph /  11.3km/h 89% 0in /  0.0mm 0 W/m2
05:08 58.5 °F /  14.7 °C 55.2 °F /  12.9 °C 30.2in /  1021.7hPa NW 2mph /  3.2km/h 5mph /  8km/h 89% 0in /  0.0mm 0 W/m2
05:13 58.5 °F /  14.7 °C 55.2 °F /  12.9 °C 30.2in /  1021.7hPa West 4mph /  6.4km/h 7mph /  11.3km/h 89% 0in /  0.0mm 0 W/m2
05:18 58.5 °F /  14.7 °C 55.2 °F /  12.9 °C 30.2in /  1021.7hPa WNW 2.9mph /  4.7km/h 4mph /  6.4km/h 89% 0in /  0.0mm 0 W/m2
05:23 58.5 °F /  14.7 °C 55.2 °F /  12.9 °C 30.2in /  1021.7hPa NW 7mph /  11.3km/h 7mph /  11.3km/h 89% 0in /  0.0mm 0 W/m2
05:28 58.5 °F /  14.7 °C 55.2 °F /  12.9 °C 30.2in /  1021.7hPa WNW 2mph /  3.2km/h 3mph /  4.8km/h 89% 0in /  0.0mm 0 W/m2
05:33 58.5 °F /  14.7 °C 55.2 °F /  12.9 °C 30.2in /  1021.7hPa NW 2mph /  3.2km/h 3mph /  4.8km/h 89% 0in /  0.0mm 0 W/m2
05:38 58.5 °F /  14.7 °C 55.2 °F /  12.9 °C 30.2in /  1021.7hPa West 2.9mph /  4.7km/h 4mph /  6.4km/h 89% 0in /  0.0mm 0 W/m2
05:43 58.3 °F /  14.6 °C 55 °F /  12.8 °C 30.2in /  1021.7hPa WSW 2mph /  3.2km/h 3mph /  4.8km/h 89% 0in /  0.0mm 0 W/m2
05:48 58.3 °F /  14.6 °C 55 °F /  12.8 °C 30.2in /  1021.3hPa WNW 2mph /  3.2km/h 4mph /  6.4km/h 89% 0in /  0.0mm 0 W/m2
05:53 58.3 °F /  14.6 °C 54.7 °F /  12.6 °C 30.2in /  1021.7hPa WNW 4.9mph /  7.9km/h 7mph /  11.3km/h 88% 0in /  0.0mm 0 W/m2
05:58 58.3 °F /  14.6 °C 54.7 °F /  12.6 °C 30.2in /  1021.7hPa WNW 2.9mph /  4.7km/h 5mph /  8km/h 88% 0in /  0.0mm 0 W/m2
06:03 58.3 °F /  14.6 °C 54.7 °F /  12.6 °C 30.2in /  1021.7hPa West 4mph /  6.4km/h 6mph /  9.7km/h 88% 0in /  0.0mm 5 W/m2
06:08 58.3 °F /  14.6 °C 54.7 °F /  12.6 °C 30.2in /  1021.7hPa WNW 2mph /  3.2km/h 7mph /  11.3km/h 88% 0in /  0.0mm 5 W/m2
06:13 58.3 °F /  14.6 °C 55 °F /  12.8 °C 30.2in /  1021.7hPa WNW 0.9mph /  1.4km/h 3mph /  4.8km/h 89% 0in /  0.0mm 7 W/m2
06:18 58.3 °F /  14.6 °C 55 °F /  12.8 °C 30.2in /  1021.7hPa West 2mph /  3.2km/h 4mph /  6.4km/h 89% 0in /  0.0mm 7 W/m2
06:23 58.3 °F /  14.6 °C 54.7 °F /  12.6 °C 30.2in /  1021.7hPa West 4mph /  6.4km/h 6mph /  9.7km/h 88% 0in /  0.0mm 9 W/m2
06:28 58.1 °F /  14.5 °C 54.9 °F /  12.7 °C 30.2in /  1021.7hPa WNW 2mph /  3.2km/h 6mph /  9.7km/h 89% 0in /  0.0mm 11 W/m2
06:33 58.1 °F /  14.5 °C 54.5 °F /  12.5 °C 30.2in /  1021.7hPa West 2mph /  3.2km/h 5mph /  8km/h 88% 0in /  0.0mm 12 W/m2
06:38 58.3 °F /  14.6 °C 54.7 °F /  12.6 °C 30.2in /  1021.7hPa NNW 2mph /  3.2km/h 6mph /  9.7km/h 88% 0in /  0.0mm 18 W/m2
06:43 58.3 °F /  14.6 °C 54.7 °F /  12.6 °C 30.2in /  1021.7hPa West 2mph /  3.2km/h 4mph /  6.4km/h 88% 0in /  0.0mm 23 W/m2
06:48 58.3 °F /  14.6 °C 54.7 °F /  12.6 °C 30.2in /  1021.7hPa WSW 4mph /  6.4km/h 9mph /  14.5km/h 88% 0in /  0.0mm 30 W/m2
06:53 58.3 °F /  14.6 °C 54.7 °F /  12.6 °C 30.2in /  1021.3hPa West 2.9mph /  4.7km/h 6mph /  9.7km/h 88% 0in /  0.0mm 35 W/m2
06:58 58.3 °F /  14.6 °C 54.7 °F /  12.6 °C 30.2in /  1021.3hPa WNW 2.9mph /  4.7km/h 7mph /  11.3km/h 88% 0in /  0.0mm 42 W/m2
07:03 58.3 °F /  14.6 °C 55 °F /  12.8 °C 30.2in /  1021.3hPa West 2mph /  3.2km/h 6mph /  9.7km/h 89% 0in /  0.0mm 54 W/m2
07:08 58.3 °F /  14.6 °C 54.7 °F /  12.6 °C 30.2in /  1021.3hPa West 2mph /  3.2km/h 4mph /  6.4km/h 88% 0in /  0.0mm 65 W/m2
07:13 58.5 °F /  14.7 °C 55.2 °F /  12.9 °C 30.2in /  1021.3hPa NW 2mph /  3.2km/h 6mph /  9.7km/h 89% 0in /  0.0mm 74 W/m2
07:18 58.5 °F /  14.7 °C 54.9 °F /  12.7 °C 30.2in /  1021.3hPa WNW 2mph /  3.2km/h 3mph /  4.8km/h 88% 0in /  0.0mm 86 W/m2
07:23 58.5 °F /  14.7 °C 54.9 °F /  12.7 °C 30.2in /  1021.3hPa NW 0.9mph /  1.4km/h 3mph /  4.8km/h 88% 0in /  0.0mm 83 W/m2
07:28 58.6 °F /  14.8 °C 55.4 °F /  13 °C 30.2in /  1021.3hPa WSW 0.9mph /  1.4km/h 2mph /  3.2km/h 89% 0in /  0.0mm 98 W/m2
07:33 58.8 °F /  14.9 °C 55.6 °F /  13.1 °C 30.2in /  1021.3hPa NE 2mph /  3.2km/h 3mph /  4.8km/h 89% 0in /  0.0mm 125 W/m2
07:38 59 °F /  15 °C 55.4 °F /  13 °C 30.2in /  1021.3hPa ENE 4mph /  6.4km/h 6mph /  9.7km/h 88% 0in /  0.0mm 130 W/m2
07:43 59.2 °F /  15.1 °C 55.6 °F /  13.1 °C 30.2in /  1021.3hPa ENE 2mph /  3.2km/h 2mph /  3.2km/h 88% 0in /  0.0mm 176 W/m2
07:48 59.4 °F /  15.2 °C 55.8 °F /  13.2 °C 30.2in /  1021.3hPa North 0.9mph /  1.4km/h 6mph /  9.7km/h 88% 0in /  0.0mm 139 W/m2
07:53 59.4 °F /  15.2 °C 55.4 °F /  13 °C 30.2in /  1021.3hPa Calm   4mph /  6.4km/h 87% 0in /  0.0mm 135 W/m2
07:58 59.4 °F /  15.2 °C 55.4 °F /  13 °C 30.2in /  1021.3hPa WNW 2mph /  3.2km/h 3mph /  4.8km/h 87% 0in /  0.0mm 149 W/m2
08:03 59.4 °F /  15.2 °C 55.4 °F /  13 °C 30.2in /  1021.3hPa NNE 0.9mph /  1.4km/h 2mph /  3.2km/h 87% 0in /  0.0mm 105 W/m2
08:09 59.4 °F /  15.2 °C 55.4 °F /  13 °C 30.2in /  1021.7hPa East 2mph /  3.2km/h 5mph /  8km/h 87% 0in /  0.0mm 105 W/m2
08:14 59.5 °F /  15.3 °C 55.6 °F /  13.1 °C 30.2in /  1021.7hPa NNW 0.9mph /  1.4km/h 2mph /  3.2km/h 87% 0in /  0.0mm 125 W/m2
08:19 59.5 °F /  15.3 °C 55.6 °F /  13.1 °C 30.2in /  1021.7hPa East 2.9mph /  4.7km/h 7mph /  11.3km/h 87% 0in /  0.0mm 77 W/m2
08:24 59.4 °F /  15.2 °C 55.2 °F /  12.9 °C 30.2in /  1021.7hPa NE 2mph /  3.2km/h 5mph /  8km/h 86% 0in /  0.0mm 81 W/m2
08:29 59.2 °F /  15.1 °C 55.4 °F /  13 °C 30.2in /  1021.7hPa WNW 2mph /  3.2km/h 4mph /  6.4km/h 87% 0in /  0.0mm 100 W/m2
08:34 59.2 °F /  15.1 °C 55.4 °F /  13 °C 30.2in /  1021.7hPa NNW 4mph /  6.4km/h 4mph /  6.4km/h 87% 0in /  0.0mm 90 W/m2
08:39 59.2 °F /  15.1 °C 55.4 °F /  13 °C 30.2in /  1021.7hPa NNE 0.9mph /  1.4km/h 4mph /  6.4km/h 87% 0in /  0.0mm 100 W/m2
08:44 59.2 °F /  15.1 °C 55.4 °F /  13 °C 30.2in /  1021.7hPa East 2.9mph /  4.7km/h 5mph /  8km/h 87% 0in /  0.0mm 76 W/m2
08:49 59.2 °F /  15.1 °C 55.4 °F /  13 °C 30.2in /  1021.7hPa WNW 0.9mph /  1.4km/h 3mph /  4.8km/h 87% 0in /  0.0mm 63 W/m2
08:54 59.2 °F /  15.1 °C 55.4 °F /  13 °C 30.2in /  1021.7hPa NNW 2mph /  3.2km/h 4mph /  6.4km/h 87% 0in /  0.0mm 56 W/m2
08:59 59.2 °F /  15.1 °C 55.4 °F /  13 °C 30.2in /  1021.7hPa Calm   4mph /  6.4km/h 87% 0in /  0.0mm 116 W/m2
09:04 59.2 °F /  15.1 °C 55.4 °F /  13 °C 30.2in /  1021.7hPa ESE 0.9mph /  1.4km/h 5mph /  8km/h 87% 0in /  0.0mm 167 W/m2
09:09 59.4 °F /  15.2 °C 55.4 °F /  13 °C 30.2in /  1021.7hPa Calm   2mph /  3.2km/h 87% 0in /  0.0mm 179 W/m2
09:14 59.5 °F /  15.3 °C 55.6 °F /  13.1 °C 30.2in /  1021.7hPa Calm   4mph /  6.4km/h 87% 0in /  0.0mm 193 W/m2
09:19 59.7 °F /  15.4 °C 55.8 °F /  13.2 °C 30.2in /  1021.7hPa Calm   1mph /  1.6km/h 87% 0in /  0.0mm 262 W/m2
09:24 60.1 °F /  15.6 °C 55.9 °F /  13.3 °C 30.2in /  1021.7hPa Calm   3mph /  4.8km/h 86% 0in /  0.0mm 267 W/m2
09:34 60.3 °F /  15.7 °C 55.8 °F /  13.2 °C 30.2in /  1021.7hPa WNW 2mph /  3.2km/h 8mph /  12.9km/h 85% 0in /  0.0mm 151 W/m2
09:39 60.3 °F /  15.7 °C 55.8 °F /  13.2 °C 30.2in /  1021.7hPa NNW 2.9mph /  4.7km/h 4mph /  6.4km/h 85% 0in /  0.0mm 195 W/m2
09:44 60.3 °F /  15.7 °C 55.8 °F /  13.2 °C 30.2in /  1022.0hPa NE 4mph /  6.4km/h 6mph /  9.7km/h 85% 0in /  0.0mm 192 W/m2
09:49 60.3 °F /  15.7 °C 55.8 °F /  13.2 °C 30.2in /  1022.0hPa WNW 6mph /  9.7km/h 7mph /  11.3km/h 85% 0in /  0.0mm 186 W/m2
09:54 60.3 °F /  15.7 °C 55.8 °F /  13.2 °C 30.2in /  1022.0hPa East 0.9mph /  1.4km/h 5mph /  8km/h 85% 0in /  0.0mm 185 W/m2
09:59 60.3 °F /  15.7 °C 55.4 °F /  13 °C 30.2in /  1022.0hPa NE 0.9mph /  1.4km/h 3mph /  4.8km/h 84% 0in /  0.0mm 162 W/m2
10:04 60.3 °F /  15.7 °C 55.4 °F /  13 °C 30.2in /  1022.0hPa NW 4mph /  6.4km/h 5mph /  8km/h 84% 0in /  0.0mm 158 W/m2
10:09 60.3 °F /  15.7 °C 55.8 °F /  13.2 °C 30.2in /  1022.0hPa North 2mph /  3.2km/h 4mph /  6.4km/h 85% 0in /  0.0mm 178 W/m2
10:14 60.3 °F /  15.7 °C 55.4 °F /  13 °C 30.2in /  1022.0hPa North 2mph /  3.2km/h 5mph /  8km/h 84% 0in /  0.0mm 202 W/m2
10:19 60.3 °F /  15.7 °C 55.4 °F /  13 °C 30.2in /  1022.0hPa SE 0.9mph /  1.4km/h 5mph /  8km/h 84% 0in /  0.0mm 207 W/m2
10:24 60.4 °F /  15.8 °C 55.6 °F /  13.1 °C 30.2in /  1022.0hPa NNW 2.9mph /  4.7km/h 5mph /  8km/h 84% 0in /  0.0mm 213 W/m2
10:29 60.4 °F /  15.8 °C 55.6 °F /  13.1 °C 30.2in /  1022.0hPa NNW 0.9mph /  1.4km/h 6mph /  9.7km/h 84% 0in /  0.0mm 214 W/m2
10:34 60.4 °F /  15.8 °C 55.6 °F /  13.1 °C 30.2in /  1022.0hPa WNW 4mph /  6.4km/h 7mph /  11.3km/h 84% 0in /  0.0mm 174 W/m2
10:39 60.4 °F /  15.8 °C 55.6 °F /  13.1 °C 30.2in /  1022.0hPa NW 2.9mph /  4.7km/h 6mph /  9.7km/h 84% 0in /  0.0mm 193 W/m2
10:44 60.4 °F /  15.8 °C 55.6 °F /  13.1 °C 30.2in /  1022.0hPa NNW 0.9mph /  1.4km/h 5mph /  8km/h 84% 0in /  0.0mm 178 W/m2
10:49 60.4 °F /  15.8 °C 55.6 °F /  13.1 °C 30.2in /  1022.0hPa WNW 4mph /  6.4km/h 5mph /  8km/h 84% 0in /  0.0mm 179 W/m2
10:54 60.4 °F /  15.8 °C 55.6 °F /  13.1 °C 30.2in /  1022.0hPa WNW 2mph /  3.2km/h 4mph /  6.4km/h 84% 0in /  0.0mm 172 W/m2
10:59 60.4 °F /  15.8 °C 55.6 °F /  13.1 °C 30.2in /  1022.0hPa NE 4mph /  6.4km/h 5mph /  8km/h 84% 0in /  0.0mm 174 W/m2
11:04 60.6 °F /  15.9 °C 55.8 °F /  13.2 °C 30.2in /  1022.0hPa NNW 4mph /  6.4km/h 6mph /  9.7km/h 84% 0in /  0.0mm 181 W/m2
11:09 60.6 °F /  15.9 °C 55.8 °F /  13.2 °C 30.2in /  1022.0hPa ENE 0.9mph /  1.4km/h 3mph /  4.8km/h 84% 0in /  0.0mm 190 W/m2
11:14 60.8 °F /  16 °C 55.9 °F /  13.3 °C 30.2in /  1022.0hPa WNW 0.9mph /  1.4km/h 5mph /  8km/h 84% 0in /  0.0mm 190 W/m2
11:19 61 °F /  16.1 °C 56.1 °F /  13.4 °C 30.2in /  1022.0hPa North 0.9mph /  1.4km/h 3mph /  4.8km/h 84% 0in /  0.0mm 218 W/m2
11:24 61.2 °F /  16.2 °C 56.3 °F /  13.5 °C 30.2in /  1022.0hPa NNW 8.1mph /  13km/h 8mph /  12.9km/h 84% 0in /  0.0mm 213 W/m2
11:29 61.3 °F /  16.3 °C 56.1 °F /  13.4 °C 30.2in /  1022.0hPa NW 2mph /  3.2km/h 3mph /  4.8km/h 83% 0in /  0.0mm 237 W/m2
11:34 61.3 °F /  16.3 °C 56.1 °F /  13.4 °C 30.2in /  1022.4hPa NNE 2mph /  3.2km/h 3mph /  4.8km/h 83% 0in /  0.0mm 251 W/m2
11:39 61.3 °F /  16.3 °C 56.1 °F /  13.4 °C 30.2in /  1022.0hPa NE 2.9mph /  4.7km/h 4mph /  6.4km/h 83% 0in /  0.0mm 279 W/m2
11:44 61.7 °F /  16.5 °C 56.1 °F /  13.4 °C 30.2in /  1022.0hPa Calm   3mph /  4.8km/h 82% 0in /  0.0mm 301 W/m2
11:49 61.9 °F /  16.6 °C 56.7 °F /  13.7 °C 30.2in /  1022.0hPa Calm   4mph /  6.4km/h 83% 0in /  0.0mm 285 W/m2
11:54 62.1 °F /  16.7 °C 56.5 °F /  13.6 °C 30.2in /  1022.4hPa WNW 0.9mph /  1.4km/h 5mph /  8km/h 82% 0in /  0.0mm 257 W/m2
11:59 62.2 °F /  16.8 °C 56.7 °F /  13.7 °C 30.2in /  1022.4hPa WNW 4mph /  6.4km/h 4mph /  6.4km/h 82% 0in /  0.0mm 213 W/m2
12:04 62.2 °F /  16.8 °C 56.7 °F /  13.7 °C 30.2in /  1022.4hPa ENE 2mph /  3.2km/h 3mph /  4.8km/h 82% 0in /  0.0mm 209 W/m2
12:09 62.4 °F /  16.9 °C 56.5 °F /  13.6 °C 30.2in /  1022.4hPa WNW 0.9mph /  1.4km/h 4mph /  6.4km/h 81% 0in /  0.0mm 246 W/m2
12:14 62.4 °F /  16.9 °C 56.5 °F /  13.6 °C 30.2in /  1022.4hPa SW 0.9mph /  1.4km/h 3mph /  4.8km/h 81% 0in /  0.0mm 290 W/m2
12:19 62.4 °F /  16.9 °C 56.5 °F /  13.6 °C 30.2in /  1022.4hPa North 2.9mph /  4.7km/h 3mph /  4.8km/h 81% 0in /  0.0mm 279 W/m2
12:24 62.4 °F /  16.9 °C 56.5 °F /  13.6 °C 30.2in /  1022.4hPa NNW 4mph /  6.4km/h 5mph /  8km/h 81% 0in /  0.0mm 250 W/m2
12:29 62.4 °F /  16.9 °C 56.5 °F /  13.6 °C 30.2in /  1022.4hPa North 2mph /  3.2km/h 5mph /  8km/h 81% 0in /  0.0mm 248 W/m2
12:34 62.6 °F /  17 °C 56.7 °F /  13.7 °C 30.2in /  1022.4hPa ENE 4mph /  6.4km/h 6mph /  9.7km/h 81% 0in /  0.0mm 279 W/m2
12:39 62.8 °F /  17.1 °C 56.5 °F /  13.6 °C 30.2in /  1022.4hPa ESE 0.9mph /  1.4km/h 4mph /  6.4km/h 80% 0in /  0.0mm 253 W/m2
12:44 62.8 °F /  17.1 °C 56.8 °F /  13.8 °C 30.2in /  1022.4hPa ENE 4mph /  6.4km/h 8mph /  12.9km/h 81% 0in /  0.0mm 230 W/m2
12:49 62.8 °F /  17.1 °C 56.5 °F /  13.6 °C 30.2in /  1022.4hPa NW 0.9mph /  1.4km/h 4mph /  6.4km/h 80% 0in /  0.0mm 223 W/m2
12:54 62.8 °F /  17.1 °C 56.5 °F /  13.6 °C 30.2in /  1022.4hPa NNE 2.9mph /  4.7km/h 4mph /  6.4km/h 80% 0in /  0.0mm 223 W/m2
12:59 62.8 °F /  17.1 °C 56.8 °F /  13.8 °C 30.2in /  1022.4hPa ENE 2mph /  3.2km/h 3mph /  4.8km/h 81% 0in /  0.0mm 223 W/m2
13:04 62.8 °F /  17.1 °C 56.8 °F /  13.8 °C 30.2in /  1022.4hPa NW 2mph /  3.2km/h 4mph /  6.4km/h 81% 0in /  0.0mm 262 W/m2
13:09 62.6 °F /  17 °C 56.7 °F /  13.7 °C 30.2in /  1022.4hPa Calm   6mph /  9.7km/h 81% 0in /  0.0mm 230 W/m2
13:14 62.6 °F /  17 °C 56.3 °F /  13.5 °C 30.2in /  1022.4hPa NNW 2mph /  3.2km/h 7mph /  11.3km/h 80% 0in /  0.0mm 229 W/m2
13:19 62.4 °F /  16.9 °C 56.5 °F /  13.6 °C 30.2in /  1022.4hPa WNW 0.9mph /  1.4km/h 3mph /  4.8km/h 81% 0in /  0.0mm 216 W/m2
13:24 62.4 °F /  16.9 °C 56.5 °F /  13.6 °C 30.2in /  1022.4hPa NE 0.9mph /  1.4km/h 4mph /  6.4km/h 81% 0in /  0.0mm 230 W/m2
13:29 62.6 °F /  17 °C 57 °F /  13.9 °C 30.2in /  1022.4hPa NNE 0.9mph /  1.4km/h 3mph /  4.8km/h 82% 0in /  0.0mm 229 W/m2
13:34 62.8 °F /  17.1 °C 56.8 °F /  13.8 °C 30.2in /  1022.4hPa WNW 2mph /  3.2km/h 4mph /  6.4km/h 81% 0in /  0.0mm 202 W/m2
13:39 62.8 °F /  17.1 °C 56.8 °F /  13.8 °C 30.2in /  1022.4hPa NNW 4mph /  6.4km/h 5mph /  8km/h 81% 0in /  0.0mm 179 W/m2
13:44 62.4 °F /  16.9 °C 56.5 °F /  13.6 °C 30.2in /  1022.4hPa NW 0.9mph /  1.4km/h 4mph /  6.4km/h 81% 0in /  0.0mm 171 W/m2
13:49 62.2 °F /  16.8 °C 56.3 °F /  13.5 °C 30.2in /  1022.0hPa West 2.9mph /  4.7km/h 7mph /  11.3km/h 81% 0in /  0.0mm 181 W/m2
13:54 62.1 °F /  16.7 °C 56.5 °F /  13.6 °C 30.2in /  1022.0hPa WNW 2mph /  3.2km/h 2mph /  3.2km/h 82% 0in /  0.0mm 199 W/m2
13:59 62.2 °F /  16.8 °C 56.3 °F /  13.5 °C 30.2in /  1022.0hPa NW 2.9mph /  4.7km/h 7mph /  11.3km/h 81% 0in /  0.0mm 206 W/m2
14:04 62.2 °F /  16.8 °C 56.7 °F /  13.7 °C 30.2in /  1022.0hPa NNW 4.9mph /  7.9km/h 5mph /  8km/h 82% 0in /  0.0mm 213 W/m2
14:09 62.4 °F /  16.9 °C 56.5 °F /  13.6 °C 30.2in /  1022.0hPa NNW 2mph /  3.2km/h 5mph /  8km/h 81% 0in /  0.0mm 223 W/m2
14:14 62.4 °F /  16.9 °C 56.5 °F /  13.6 °C 30.2in /  1022.0hPa ESE 2mph /  3.2km/h 4mph /  6.4km/h 81% 0in /  0.0mm 236 W/m2
14:19 62.8 °F /  17.1 °C 56.8 °F /  13.8 °C 30.2in /  1022.0hPa NE 4mph /  6.4km/h 5mph /  8km/h 81% 0in /  0.0mm 243 W/m2
14:24 62.8 °F /  17.1 °C 56.5 °F /  13.6 °C 30.2in /  1021.7hPa NNW 2mph /  3.2km/h 5mph /  8km/h 80% 0in /  0.0mm 281 W/m2
14:29 62.8 °F /  17.1 °C 56.5 °F /  13.6 °C 30.2in /  1021.7hPa WNW 2.9mph /  4.7km/h 6mph /  9.7km/h 80% 0in /  0.0mm 311 W/m2
14:34 62.8 °F /  17.1 °C 56.5 °F /  13.6 °C 30.2in /  1022.0hPa West 4mph /  6.4km/h 7mph /  11.3km/h 80% 0in /  0.0mm 285 W/m2
14:39 62.6 °F /  17 °C 56.3 °F /  13.5 °C 30.2in /  1022.0hPa Calm   5mph /  8km/h 80% 0in /  0.0mm 295 W/m2
14:44 62.8 °F /  17.1 °C 56.8 °F /  13.8 °C 30.2in /  1022.0hPa North 2mph /  3.2km/h 4mph /  6.4km/h 81% 0in /  0.0mm 287 W/m2
14:49 63 °F /  17.2 °C 56.7 °F /  13.7 °C 30.2in /  1022.0hPa WNW 2.9mph /  4.7km/h 4mph /  6.4km/h 80% 0in /  0.0mm 294 W/m2
14:54 63.1 °F /  17.3 °C 56.5 °F /  13.6 °C 30.2in /  1021.7hPa WNW 4mph /  6.4km/h 7mph /  11.3km/h 79% 0in /  0.0mm 290 W/m2
14:59 63 °F /  17.2 °C 56.3 °F /  13.5 °C 30.2in /  1021.7hPa WNW 2.9mph /  4.7km/h 4mph /  6.4km/h 79% 0in /  0.0mm 304 W/m2
15:04 63.1 °F /  17.3 °C 56.5 °F /  13.6 °C 30.2in /  1022.0hPa WNW 2mph /  3.2km/h 8mph /  12.9km/h 79% 0in /  0.0mm 308 W/m2
15:09 63.3 °F /  17.4 °C 56.7 °F /  13.7 °C 30.2in /  1022.0hPa NNW 4mph /  6.4km/h 4mph /  6.4km/h 79% 0in /  0.0mm 360 W/m2
15:14 63.7 °F /  17.6 °C 57 °F /  13.9 °C 30.2in /  1022.0hPa WNW 0.9mph /  1.4km/h 8mph /  12.9km/h 79% 0in /  0.0mm 373 W/m2
15:19 63.9 °F /  17.7 °C 56.8 °F /  13.8 °C 30.2in /  1022.0hPa NNW 2mph /  3.2km/h 5mph /  8km/h 78% 0in /  0.0mm 418 W/m2
15:24 64 °F /  17.8 °C 57 °F /  13.9 °C 30.2in /  1021.7hPa Calm   5mph /  8km/h 78% 0in /  0.0mm 364 W/m2
15:29 64.4 °F /  18 °C 57 °F /  13.9 °C 30.2in /  1021.7hPa WNW 2mph /  3.2km/h 4mph /  6.4km/h 77% 0in /  0.0mm 352 W/m2
15:34 64.6 °F /  18.1 °C 57.2 °F /  14 °C 30.2in /  1021.7hPa ENE 0.9mph /  1.4km/h 3mph /  4.8km/h 77% 0in /  0.0mm 338 W/m2
15:40 64.6 °F /  18.1 °C 56.8 °F /  13.8 °C 30.2in /  1021.7hPa WNW 0.9mph /  1.4km/h 3mph /  4.8km/h 76% 0in /  0.0mm 339 W/m2
15:45 64.6 °F /  18.1 °C 57.2 °F /  14 °C 30.2in /  1021.7hPa Calm   5mph /  8km/h 77% 0in /  0.0mm 327 W/m2
15:50 64.6 °F /  18.1 °C 56.8 °F /  13.8 °C 30.2in /  1021.7hPa WNW 2mph /  3.2km/h 5mph /  8km/h 76% 0in /  0.0mm 316 W/m2
15:55 64.6 °F /  18.1 °C 56.8 °F /  13.8 °C 30.2in /  1021.7hPa WNW 4mph /  6.4km/h 7mph /  11.3km/h 76% 0in /  0.0mm 329 W/m2
16:00 64.6 °F /  18.1 °C 56.8 °F /  13.8 °C 30.2in /  1021.7hPa East 0.9mph /  1.4km/h 6mph /  9.7km/h 76% 0in /  0.0mm 302 W/m2
16:05 64.8 °F /  18.2 °C 57 °F /  13.9 °C 30.2in /  1021.7hPa Calm   5mph /  8km/h 76% 0in /  0.0mm 239 W/m2
16:10 64.6 °F /  18.1 °C 56.8 °F /  13.8 °C 30.2in /  1021.7hPa NNW 2.9mph /  4.7km/h 4mph /  6.4km/h 76% 0in /  0.0mm 214 W/m2
16:15 64.6 °F /  18.1 °C 57.2 °F /  14 °C 30.2in /  1021.7hPa WNW 6.9mph /  11.1km/h 7mph /  11.3km/h 77% 0in /  0.0mm 236 W/m2
16:20 64.6 °F /  18.1 °C 56.8 °F /  13.8 °C 30.2in /  1022.0hPa NNW 2mph /  3.2km/h 5mph /  8km/h 76% 0in /  0.0mm 244 W/m2
16:25 64.6 °F /  18.1 °C 56.8 °F /  13.8 °C 30.2in /  1021.7hPa WNW 2.9mph /  4.7km/h 5mph /  8km/h 76% 0in /  0.0mm 220 W/m2
16:30 64.4 °F /  18 °C 57 °F /  13.9 °C 30.2in /  1021.7hPa WNW 4mph /  6.4km/h 6mph /  9.7km/h 77% 0in /  0.0mm 221 W/m2
16:35 64.6 °F /  18.1 °C 57.2 °F /  14 °C 30.2in /  1021.7hPa Calm   5mph /  8km/h 77% 0in /  0.0mm 227 W/m2
16:40 64.8 °F /  18.2 °C 57 °F /  13.9 °C 30.2in /  1021.7hPa ENE 2mph /  3.2km/h 3mph /  4.8km/h 76% 0in /  0.0mm 200 W/m2
16:45 64.9 °F /  18.3 °C 57.6 °F /  14.2 °C 30.2in /  1021.7hPa NE 0.9mph /  1.4km/h 4mph /  6.4km/h 77% 0in /  0.0mm 216 W/m2
16:50 65.1 °F /  18.4 °C 57.7 °F /  14.3 °C 30.2in /  1021.7hPa WNW 2mph /  3.2km/h 6mph /  9.7km/h 77% 0in /  0.0mm 234 W/m2
16:55 65.1 °F /  18.4 °C 57.7 °F /  14.3 °C 30.2in /  1021.7hPa WNW 6.9mph /  11.1km/h 7mph /  11.3km/h 77% 0in /  0.0mm 229 W/m2
17:00 64.9 °F /  18.3 °C 57.6 °F /  14.2 °C 30.2in /  1021.7hPa West 6mph /  9.7km/h 8mph /  12.9km/h 77% 0in /  0.0mm 244 W/m2
17:05 64.8 °F /  18.2 °C 57.4 °F /  14.1 °C 30.2in /  1021.3hPa WNW 2mph /  3.2km/h 7mph /  11.3km/h 77% 0in /  0.0mm 258 W/m2
17:10 64.9 °F /  18.3 °C 57.6 °F /  14.2 °C 30.2in /  1021.3hPa West 2.9mph /  4.7km/h 5mph /  8km/h 77% 0in /  0.0mm 258 W/m2
17:15 64.9 °F /  18.3 °C 57.6 °F /  14.2 °C 30.2in /  1021.3hPa WNW 2mph /  3.2km/h 6mph /  9.7km/h 77% 0in /  0.0mm 225 W/m2
17:20 64.9 °F /  18.3 °C 57.6 °F /  14.2 °C 30.2in /  1021.3hPa West 2.9mph /  4.7km/h 6mph /  9.7km/h 77% 0in /  0.0mm 216 W/m2
17:25 64.9 °F /  18.3 °C 57.6 °F /  14.2 °C 30.2in /  1021.3hPa WNW 2.9mph /  4.7km/h 4mph /  6.4km/h 77% 0in /  0.0mm 163 W/m2
17:30 65.1 °F /  18.4 °C 57.7 °F /  14.3 °C 30.2in /  1021.3hPa WNW 4mph /  6.4km/h 4mph /  6.4km/h 77% 0in /  0.0mm 111 W/m2
17:35 65.1 °F /  18.4 °C 57.4 °F /  14.1 °C 30.2in /  1021.3hPa North 2.9mph /  4.7km/h 3mph /  4.8km/h 76% 0in /  0.0mm 84 W/m2
17:40 65.1 °F /  18.4 °C 57.4 °F /  14.1 °C 30.2in /  1021.3hPa NW 2mph /  3.2km/h 4mph /  6.4km/h 76% 0in /  0.0mm 91 W/m2
17:45 65.1 °F /  18.4 °C 58.1 °F /  14.5 °C 30.2in /  1021.3hPa NNW 2.9mph /  4.7km/h 4mph /  6.4km/h 78% 0in /  0.0mm 104 W/m2
17:50 64.9 °F /  18.3 °C 57.9 °F /  14.4 °C 30.2in /  1021.3hPa NNW 2.9mph /  4.7km/h 5mph /  8km/h 78% 0in /  0.0mm 113 W/m2
17:55 64.9 °F /  18.3 °C 57.6 °F /  14.2 °C 30.2in /  1021.3hPa NNW 2mph /  3.2km/h 3mph /  4.8km/h 77% 0in /  0.0mm 120 W/m2
18:01 64.9 °F /  18.3 °C 57.6 °F /  14.2 °C 30.2in /  1021.3hPa NW 4mph /  6.4km/h 4mph /  6.4km/h 77% 0in /  0.0mm 121 W/m2
18:06 64.9 °F /  18.3 °C 57.6 °F /  14.2 °C 30.2in /  1021.3hPa NW 2mph /  3.2km/h 6mph /  9.7km/h 77% 0in /  0.0mm 135 W/m2
18:11 64.9 °F /  18.3 °C 57.6 °F /  14.2 °C 30.2in /  1021.3hPa NNW 4.9mph /  7.9km/h 5mph /  8km/h 77% 0in /  0.0mm 141 W/m2
18:16 64.9 °F /  18.3 °C 57.6 °F /  14.2 °C 30.2in /  1021.3hPa NW 2mph /  3.2km/h 4mph /  6.4km/h 77% 0in /  0.0mm 132 W/m2
18:21 64.9 °F /  18.3 °C 57.2 °F /  14 °C 30.2in /  1021.3hPa West 2.9mph /  4.7km/h 5mph /  8km/h 76% 0in /  0.0mm 109 W/m2
18:26 64.9 °F /  18.3 °C 57.6 °F /  14.2 °C 30.2in /  1021.0hPa NE 2.9mph /  4.7km/h 4mph /  6.4km/h 77% 0in /  0.0mm 107 W/m2
18:31 65.1 °F /  18.4 °C 57.7 °F /  14.3 °C 30.2in /  1021.0hPa ENE 2mph /  3.2km/h 4mph /  6.4km/h 77% 0in /  0.0mm 113 W/m2
18:36 65.1 °F /  18.4 °C 57.7 °F /  14.3 °C 30.2in /  1021.0hPa WNW 2mph /  3.2km/h 5mph /  8km/h 77% 0in /  0.0mm 84 W/m2
18:41 64.9 °F /  18.3 °C 57.6 °F /  14.2 °C 30.2in /  1021.0hPa West 2mph /  3.2km/h 3mph /  4.8km/h 77% 0in /  0.0mm 65 W/m2
18:46 64.9 °F /  18.3 °C 57.6 °F /  14.2 °C 30.2in /  1021.0hPa North 4.9mph /  7.9km/h 5mph /  8km/h 77% 0in /  0.0mm 72 W/m2
18:51 64.8 °F /  18.2 °C 57.4 °F /  14.1 °C 30.2in /  1021.0hPa NW 2.9mph /  4.7km/h 4mph /  6.4km/h 77% 0in /  0.0mm 83 W/m2
18:56 64.8 °F /  18.2 °C 57.7 °F /  14.3 °C 30.2in /  1021.0hPa WNW 2.9mph /  4.7km/h 8mph /  12.9km/h 78% 0in /  0.0mm 88 W/m2
19:01 64.8 °F /  18.2 °C 57.7 °F /  14.3 °C 30.2in /  1021.0hPa NW 2mph /  3.2km/h 4mph /  6.4km/h 78% 0in /  0.0mm 102 W/m2
19:06 64.8 °F /  18.2 °C 57.7 °F /  14.3 °C 30.2in /  1021.0hPa West 2mph /  3.2km/h 8mph /  12.9km/h 78% 0in /  0.0mm 118 W/m2
19:11 64.8 °F /  18.2 °C 57.7 °F /  14.3 °C 30.2in /  1021.0hPa West 6mph /  9.7km/h 7mph /  11.3km/h 78% 0in /  0.0mm 114 W/m2
19:16 64.8 °F /  18.2 °C 57.7 °F /  14.3 °C 30.2in /  1021.0hPa WSW 4mph /  6.4km/h 7mph /  11.3km/h 78% 0in /  0.0mm 102 W/m2
19:21 64.6 °F /  18.1 °C 57.9 °F /  14.4 °C 30.2in /  1021.0hPa WNW 2.9mph /  4.7km/h 4mph /  6.4km/h 79% 0in /  0.0mm 81 W/m2
19:26 64.6 °F /  18.1 °C 57.9 °F /  14.4 °C 30.2in /  1021.0hPa NNW 2mph /  3.2km/h 4mph /  6.4km/h 79% 0in /  0.0mm 77 W/m2
19:31 64.6 °F /  18.1 °C 57.9 °F /  14.4 °C 30.2in /  1021.0hPa East 2mph /  3.2km/h 5mph /  8km/h 79% 0in /  0.0mm 74 W/m2
19:36 64.6 °F /  18.1 °C 57.6 °F /  14.2 °C 30.2in /  1021.0hPa WNW 2mph /  3.2km/h 5mph /  8km/h 78% 0in /  0.0mm 76 W/m2
19:41 64.4 °F /  18 °C 57.7 °F /  14.3 °C 30.2in /  1021.0hPa NW 4mph /  6.4km/h 6mph /  9.7km/h 79% 0in /  0.0mm 76 W/m2
19:46 64.2 °F /  17.9 °C 57.6 °F /  14.2 °C 30.2in /  1021.0hPa West 2.9mph /  4.7km/h 4mph /  6.4km/h 79% 0in /  0.0mm 62 W/m2
19:51 64.2 °F /  17.9 °C 57.6 °F /  14.2 °C 30.2in /  1021.0hPa WSW 2.9mph /  4.7km/h 4mph /  6.4km/h 79% 0in /  0.0mm 56 W/m2
19:56 64 °F /  17.8 °C 57.4 °F /  14.1 °C 30.2in /  1021.3hPa NW 0.9mph /  1.4km/h 2mph /  3.2km/h 79% 0in /  0.0mm 58 W/m2
20:01 64 °F /  17.8 °C 57.4 °F /  14.1 °C 30.2in /  1021.3hPa NW 2mph /  3.2km/h 3mph /  4.8km/h 79% 0in /  0.0mm 60 W/m2
20:06 64 °F /  17.8 °C 57.4 °F /  14.1 °C 30.2in /  1021.3hPa WNW 2mph /  3.2km/h 3mph /  4.8km/h 79% 0in /  0.0mm 49 W/m2
20:11 64 °F /  17.8 °C 57 °F /  13.9 °C 30.2in /  1021.3hPa WNW 4mph /  6.4km/h 8mph /  12.9km/h 78% 0in /  0.0mm 42 W/m2
20:16 64 °F /  17.8 °C 57.4 °F /  14.1 °C 30.2in /  1021.3hPa NNE 2mph /  3.2km/h 7mph /  11.3km/h 79% 0in /  0.0mm 42 W/m2
20:21 63.9 °F /  17.7 °C 57.2 °F /  14 °C 30.2in /  1021.3hPa WNW 0.9mph /  1.4km/h 8mph /  12.9km/h 79% 0in /  0.0mm 42 W/m2
20:26 63.9 °F /  17.7 °C 57.2 °F /  14 °C 30.2in /  1021.3hPa WNW 2.9mph /  4.7km/h 7mph /  11.3km/h 79% 0in /  0.0mm 39 W/m2
20:31 63.9 °F /  17.7 °C 57.2 °F /  14 °C 30.2in /  1021.3hPa WNW 2mph /  3.2km/h 5mph /  8km/h 79% 0in /  0.0mm 37 W/m2
20:36 63.9 °F /  17.7 °C 57.2 °F /  14 °C 30.2in /  1021.3hPa NNW 2mph /  3.2km/h 7mph /  11.3km/h 79% 0in /  0.0mm 33 W/m2
20:41 63.7 °F /  17.6 °C 57 °F /  13.9 °C 30.2in /  1021.3hPa NW 2.9mph /  4.7km/h 9mph /  14.5km/h 79% 0in /  0.0mm 26 W/m2
20:46 63.7 °F /  17.6 °C 57.4 °F /  14.1 °C 30.2in /  1021.3hPa NNW 2.9mph /  4.7km/h 5mph /  8km/h 80% 0in /  0.0mm 18 W/m2
20:51 63.7 °F /  17.6 °C 57.4 °F /  14.1 °C 30.2in /  1021.3hPa NNW 2.9mph /  4.7km/h 9mph /  14.5km/h 80% 0in /  0.0mm 18 W/m2
20:56 63.5 °F /  17.5 °C 57.2 °F /  14 °C 30.2in /  1021.3hPa NNW 2.9mph /  4.7km/h 3mph /  4.8km/h 80% 0in /  0.0mm 16 W/m2
21:01 63.5 °F /  17.5 °C 57.6 °F /  14.2 °C 30.2in /  1021.3hPa Calm   7mph /  11.3km/h 81% 0in /  0.0mm 11 W/m2
21:06 63.3 °F /  17.4 °C 57 °F /  13.9 °C 30.2in /  1021.3hPa WSW 4mph /  6.4km/h 4mph /  6.4km/h 80% 0in /  0.0mm 7 W/m2
21:11 63.3 °F /  17.4 °C 57 °F /  13.9 °C 30.2in /  1021.3hPa WNW 0.9mph /  1.4km/h 3mph /  4.8km/h 80% 0in /  0.0mm 5 W/m2
21:16 63.3 °F /  17.4 °C 57 °F /  13.9 °C 30.2in /  1021.3hPa NW 0.9mph /  1.4km/h 2mph /  3.2km/h 80% 0in /  0.0mm 0 W/m2
21:21 63.1 °F /  17.3 °C 56.8 °F /  13.8 °C 30.2in /  1021.7hPa NNW 2mph /  3.2km/h 4mph /  6.4km/h 80% 0in /  0.0mm 0 W/m2
21:26 63.1 °F /  17.3 °C 56.8 °F /  13.8 °C 30.2in /  1021.7hPa WNW 2.9mph /  4.7km/h 4mph /  6.4km/h 80% 0in /  0.0mm 0 W/m2
21:31 63 °F /  17.2 °C 56.7 °F /  13.7 °C 30.2in /  1021.7hPa NNW 2.9mph /  4.7km/h 7mph /  11.3km/h 80% 0in /  0.0mm 0 W/m2
21:36 63 °F /  17.2 °C 56.7 °F /  13.7 °C 30.2in /  1021.7hPa WNW 4mph /  6.4km/h 6mph /  9.7km/h 80% 0in /  0.0mm 0 W/m2
21:41 63 °F /  17.2 °C 56.7 °F /  13.7 °C 30.2in /  1021.7hPa WSW 4mph /  6.4km/h 8mph /  12.9km/h 80% 0in /  0.0mm 0 W/m2
21:46 62.8 °F /  17.1 °C 56.8 °F /  13.8 °C 30.2in /  1021.7hPa WNW 2mph /  3.2km/h 4mph /  6.4km/h 81% 0in /  0.0mm 0 W/m2
21:51 62.8 °F /  17.1 °C 56.8 °F /  13.8 °C 30.2in /  1021.7hPa WNW 2mph /  3.2km/h 3mph /  4.8km/h 81% 0in /  0.0mm 0 W/m2
21:56 62.8 °F /  17.1 °C 56.8 °F /  13.8 °C 30.2in /  1021.7hPa Calm   2mph /  3.2km/h 81% 0in /  0.0mm 0 W/m2
22:01 62.8 °F /  17.1 °C 56.8 °F /  13.8 °C 30.2in /  1021.7hPa NW 2mph /  3.2km/h 3mph /  4.8km/h 81% 0in /  0.0mm 0 W/m2
22:06 62.6 °F /  17 °C 56.7 °F /  13.7 °C 30.2in /  1021.7hPa NW 4mph /  6.4km/h 5mph /  8km/h 81% 0in /  0.0mm 0 W/m2
22:11 62.6 °F /  17 °C 56.7 °F /  13.7 °C 30.2in /  1021.7hPa WNW 4mph /  6.4km/h 4mph /  6.4km/h 81% 0in /  0.0mm 0 W/m2
22:16 62.4 °F /  16.9 °C 56.5 °F /  13.6 °C 30.2in /  1021.7hPa NW 2.9mph /  4.7km/h 6mph /  9.7km/h 81% 0in /  0.0mm 0 W/m2
22:21 62.4 °F /  16.9 °C 56.8 °F /  13.8 °C 30.2in /  1022.0hPa WNW 2.9mph /  4.7km/h 4mph /  6.4km/h 82% 0in /  0.0mm 0 W/m2
22:26 62.4 °F /  16.9 °C 56.5 °F /  13.6 °C 30.2in /  1022.0hPa WNW 2mph /  3.2km/h 8mph /  12.9km/h 81% 0in /  0.0mm 0 W/m2
22:31 62.4 °F /  16.9 °C 56.5 °F /  13.6 °C 30.2in /  1022.0hPa WNW 0.9mph /  1.4km/h 2mph /  3.2km/h 81% 0in /  0.0mm 0 W/m2
22:36 62.4 °F /  16.9 °C 56.8 °F /  13.8 °C 30.2in /  1022.0hPa NNE 0.9mph /  1.4km/h 8mph /  12.9km/h 82% 0in /  0.0mm 0 W/m2
22:41 62.2 °F /  16.8 °C 56.3 °F /  13.5 °C 30.2in /  1022.0hPa ESE 0.9mph /  1.4km/h 3mph /  4.8km/h 81% 0in /  0.0mm 0 W/m2
22:46 62.2 °F /  16.8 °C 56.3 °F /  13.5 °C 30.2in /  1022.0hPa NNW 2.9mph /  4.7km/h 4mph /  6.4km/h 81% 0in /  0.0mm 0 W/m2
22:51 62.2 °F /  16.8 °C 56.7 °F /  13.7 °C 30.2in /  1022.0hPa South 0.9mph /  1.4km/h 2mph /  3.2km/h 82% 0in /  0.0mm 0 W/m2
22:56 62.2 °F /  16.8 °C 56.7 °F /  13.7 °C 30.2in /  1022.0hPa NNW 0.9mph /  1.4km/h 3mph /  4.8km/h 82% 0in /  0.0mm 0 W/m2
23:01 62.1 °F /  16.7 °C 56.5 °F /  13.6 °C 30.2in /  1022.0hPa NNE 0.9mph /  1.4km/h 1mph /  1.6km/h 82% 0in /  0.0mm 0 W/m2
23:06 62.1 °F /  16.7 °C 56.5 °F /  13.6 °C 30.2in /  1022.0hPa NW 2mph /  3.2km/h 3mph /  4.8km/h 82% 0in /  0.0mm 0 W/m2
23:11 62.1 °F /  16.7 °C 56.5 °F /  13.6 °C 30.2in /  1022.0hPa ENE 0.9mph /  1.4km/h 1mph /  1.6km/h 82% 0in /  0.0mm 0 W/m2
23:16 62.1 °F /  16.7 °C 56.8 °F /  13.8 °C 30.2in /  1022.0hPa NW 0.9mph /  1.4km/h 1mph /  1.6km/h 83% 0in /  0.0mm 0 W/m2
23:21 62.1 °F /  16.7 °C 56.5 °F /  13.6 °C 30.2in /  1022.0hPa Calm   2mph /  3.2km/h 82% 0in /  0.0mm 0 W/m2
23:26 61.9 °F /  16.6 °C 56.3 °F /  13.5 °C 30.2in /  1021.7hPa ENE 2mph /  3.2km/h 2mph /  3.2km/h 82% 0in /  0.0mm 0 W/m2
23:31 61.9 °F /  16.6 °C 56.3 °F /  13.5 °C 30.2in /  1021.7hPa NNE 0.9mph /  1.4km/h 1mph /  1.6km/h 82% 0in /  0.0mm 0 W/m2
23:36 61.9 °F /  16.6 °C 56.3 °F /  13.5 °C 30.2in /  1022.0hPa Calm   1mph /  1.6km/h 82% 0in /  0.0mm 0 W/m2
23:41 61.9 °F /  16.6 °C 56.3 °F /  13.5 °C 30.2in /  1021.7hPa Calm   1mph /  1.6km/h 82% 0in /  0.0mm 0 W/m2
23:46 61.9 °F /  16.6 °C 56.3 °F /  13.5 °C 30.2in /  1021.7hPa Calm   1mph /  1.6km/h 82% 0in /  0.0mm 0 W/m2
23:52 61.7 °F /  16.5 °C 56.1 °F /  13.4 °C 30.2in /  1021.7hPa NNE 0.9mph /  1.4km/h 3mph /  4.8km/h 82% 0in /  0.0mm 0 W/m2
23:57 61.7 °F /  16.5 °C 56.1 °F /  13.4 °C 30.2in /  1021.7hPa Calm     82% 0in /  0.0mm 0 W/m2
Juneau County Weather
Compliments of Weather Underground - 4 mb